sensor_id;sensor_type;location;lat;lon;timestamp;pressure;altitude;pressure_sealevel;temperature;humidity
21588;BME280;10956;48.878;13.316;2023-05-23T00:01:34;93798.31;;;15.53;81.89
21588;BME280;10956;48.878;13.316;2023-05-23T00:04:03;93804.97;;;15.42;82.12
21588;BME280;10956;48.878;13.316;2023-05-23T00:06:28;93804.75;;;15.30;81.98
21588;BME280;10956;48.878;13.316;2023-05-23T00:08:55;93804.41;;;15.23;82.21
21588;BME280;10956;48.878;13.316;2023-05-23T00:11:20;93803.44;;;15.18;83.08
21588;BME280;10956;48.878;13.316;2023-05-23T00:13:51;93805.25;;;15.09;83.55
21588;BME280;10956;48.878;13.316;2023-05-23T00:16:17;93803.69;;;15.08;84.15
21588;BME280;10956;48.878;13.316;2023-05-23T00:18:43;93808.03;;;15.04;84.92
21588;BME280;10956;48.878;13.316;2023-05-23T00:21:09;93811.75;;;15.03;87.63
21588;BME280;10956;48.878;13.316;2023-05-23T00:23:35;93810.38;;;15.06;87.63
21588;BME280;10956;48.878;13.316;2023-05-23T00:26:00;93805.06;;;15.06;88.21
21588;BME280;10956;48.878;13.316;2023-05-23T00:28:26;93811.75;;;15.03;88.98
21588;BME280;10956;48.878;13.316;2023-05-23T00:30:52;93806.75;;;15.02;88.78
21588;BME280;10956;48.878;13.316;2023-05-23T00:33:17;93811.59;;;15.00;88.76
21588;BME280;10956;48.878;13.316;2023-05-23T00:35:46;93812.97;;;14.97;89.47
21588;BME280;10956;48.878;13.316;2023-05-23T00:38:12;93822.81;;;14.97;90.15
21588;BME280;10956;48.878;13.316;2023-05-23T00:40:38;93817.31;;;14.93;90.97
21588;BME280;10956;48.878;13.316;2023-05-23T00:43:04;93823.81;;;14.87;93.03
21588;BME280;10956;48.878;13.316;2023-05-23T00:45:30;93824.72;;;14.82;94.02
21588;BME280;10956;48.878;13.316;2023-05-23T00:47:55;93828.75;;;14.80;93.40
21588;BME280;10956;48.878;13.316;2023-05-23T00:50:21;93825.03;;;14.81;92.90
21588;BME280;10956;48.878;13.316;2023-05-23T00:52:47;93828.16;;;14.83;92.45
21588;BME280;10956;48.878;13.316;2023-05-23T00:55:13;93825.22;;;14.84;92.87
21588;BME280;10956;48.878;13.316;2023-05-23T00:57:40;93824.44;;;14.84;92.89
21588;BME280;10956;48.878;13.316;2023-05-23T01:00:10;93824.63;;;14.88;92.86
21588;BME280;10956;48.878;13.316;2023-05-23T01:02:46;93820.09;;;14.88;92.99
21588;BME280;10956;48.878;13.316;2023-05-23T01:05:15;93825.88;;;14.90;92.41
21588;BME280;10956;48.878;13.316;2023-05-23T01:07:45;93818.16;;;14.80;92.98
21588;BME280;10956;48.878;13.316;2023-05-23T01:10:14;93823.47;;;14.80;93.25
21588;BME280;10956;48.878;13.316;2023-05-23T01:15:39;93826.03;;;14.71;94.64
21588;BME280;10956;48.878;13.316;2023-05-23T01:18:07;93825.25;;;14.71;94.64
21588;BME280;10956;48.878;13.316;2023-05-23T01:20:38;93821.16;;;14.65;94.98
21588;BME280;10956;48.878;13.316;2023-05-23T01:26:30;93828.81;;;14.66;95.03
21588;BME280;10956;48.878;13.316;2023-05-23T01:29:25;93827.91;;;14.71;95.14
21588;BME280;10956;48.878;13.316;2023-05-23T01:31:54;93821.94;;;14.65;95.73
21588;BME280;10956;48.878;13.316;2023-05-23T01:34:21;93826.88;;;14.58;96.60
21588;BME280;10956;48.878;13.316;2023-05-23T01:36:49;93826.09;;;14.58;96.68
21588;BME280;10956;48.878;13.316;2023-05-23T01:39:15;93823.44;;;14.58;96.55
21588;BME280;10956;48.878;13.316;2023-05-23T01:41:40;93827.47;;;14.55;97.05
21588;BME280;10956;48.878;13.316;2023-05-23T01:44:06;93826.69;;;14.54;97.15
21588;BME280;10956;48.878;13.316;2023-05-23T01:46:33;93827.28;;;14.51;97.24
21588;BME280;10956;48.878;13.316;2023-05-23T01:49:01;93829.94;;;14.51;97.36
21588;BME280;10956;48.878;13.316;2023-05-23T01:51:28;93828.06;;;14.52;97.47
21588;BME280;10956;48.878;13.316;2023-05-23T01:53:55;93836.31;;;14.50;98.01
21588;BME280;10956;48.878;13.316;2023-05-23T01:56:21;93832.59;;;14.51;98.09
21588;BME280;10956;48.878;13.316;2023-05-23T01:58:46;93838.47;;;14.48;98.60
21588;BME280;10956;48.878;13.316;2023-05-23T02:01:12;93839.25;;;14.49;98.77
21588;BME280;10956;48.878;13.316;2023-05-23T02:03:38;93830.53;;;14.48;98.76
21588;BME280;10956;48.878;13.316;2023-05-23T02:06:03;93826.78;;;14.49;98.90
21588;BME280;10956;48.878;13.316;2023-05-23T02:08:28;93827.56;;;14.50;99.15
21588;BME280;10956;48.878;13.316;2023-05-23T02:10:54;93828.47;;;14.45;99.20
21588;BME280;10956;48.878;13.316;2023-05-23T02:13:19;93836.50;;;14.40;99.03
21588;BME280;10956;48.878;13.316;2023-05-23T02:15:44;93826.97;;;14.39;98.92
21588;BME280;10956;48.878;13.316;2023-05-23T02:18:10;93827.75;;;14.40;98.85
21588;BME280;10956;48.878;13.316;2023-05-23T02:20:35;93832.88;;;14.36;99.03
21588;BME280;10956;48.878;13.316;2023-05-23T02:23:01;93834.56;;;14.32;98.49
21588;BME280;10956;48.878;13.316;2023-05-23T02:25:26;93836.72;;;14.30;98.88
21588;BME280;10956;48.878;13.316;2023-05-23T02:27:51;93823.88;;;14.23;98.13
21588;BME280;10956;48.878;13.316;2023-05-23T02:30:17;93828.88;;;14.25;99.00
21588;BME280;10956;48.878;13.316;2023-05-23T02:32:43;93833.78;;;14.18;100.00
21588;BME280;10956;48.878;13.316;2023-05-23T02:35:08;93824.56;;;14.15;100.00
21588;BME280;10956;48.878;13.316;2023-05-23T02:37:35;93831.03;;;14.09;100.00
21588;BME280;10956;48.878;13.316;2023-05-23T02:40:00;93826.94;;;14.03;100.00
21588;BME280;10956;48.878;13.316;2023-05-23T02:42:25;93831.53;;;13.98;100.00
21588;BME280;10956;48.878;13.316;2023-05-23T02:44:51;93829.88;;;14.02;100.00
21588;BME280;10956;48.878;13.316;2023-05-23T02:47:16;93824.56;;;14.02;100.00
21588;BME280;10956;48.878;13.316;2023-05-23T02:49:42;93824.38;;;13.98;100.00
21588;BME280;10956;48.878;13.316;2023-05-23T02:52:07;93812.41;;;14.01;100.00
21588;BME280;10956;48.878;13.316;2023-05-23T02:54:32;93819.66;;;14.09;100.00
21588;BME280;10956;48.878;13.316;2023-05-23T02:56:58;93811.63;;;14.14;100.00
21588;BME280;10956;48.878;13.316;2023-05-23T02:59:23;93812.78;;;14.08;100.00
21588;BME280;10956;48.878;13.316;2023-05-23T03:01:48;93818.19;;;14.03;100.00
21588;BME280;10956;48.878;13.316;2023-05-23T03:04:14;93815.66;;;13.98;100.00
21588;BME280;10956;48.878;13.316;2023-05-23T03:06:40;93817.72;;;14.01;100.00
21588;BME280;10956;48.878;13.316;2023-05-23T03:09:07;93815.56;;;14.03;100.00
21588;BME280;10956;48.878;13.316;2023-05-23T03:11:33;93810.84;;;14.00;100.00
21588;BME280;10956;48.878;13.316;2023-05-23T03:13:58;93814.09;;;13.97;100.00
21588;BME280;10956;48.878;13.316;2023-05-23T03:16:23;93808.78;;;13.97;100.00
21588;BME280;10956;48.878;13.316;2023-05-23T03:18:49;93811.25;;;13.93;100.00
21588;BME280;10956;48.878;13.316;2023-05-23T03:21:14;93808.19;;;14.00;100.00
21588;BME280;10956;48.878;13.316;2023-05-23T03:23:40;93805.94;;;14.07;100.00
21588;BME280;10956;48.878;13.316;2023-05-23T03:26:06;93800.22;;;14.13;100.00
21588;BME280;10956;48.878;13.316;2023-05-23T03:28:31;93810.44;;;14.20;100.00
21588;BME280;10956;48.878;13.316;2023-05-23T03:30:57;93810.81;;;14.27;100.00
21588;BME280;10956;48.878;13.316;2023-05-23T03:33:22;93810.59;;;14.37;100.00
21588;BME280;10956;48.878;13.316;2023-05-23T03:35:48;93815.59;;;14.52;100.00
21588;BME280;10956;48.878;13.316;2023-05-23T03:38:14;93815.72;;;14.70;100.00
21588;BME280;10956;48.878;13.316;2023-05-23T03:40:40;93812.91;;;14.89;98.88
21588;BME280;10956;48.878;13.316;2023-05-23T03:43:06;93825.69;;;15.09;97.72
21588;BME280;10956;48.878;13.316;2023-05-23T03:45:32;93829.56;;;15.25;97.13
21588;BME280;10956;48.878;13.316;2023-05-23T03:47:58;93829.47;;;15.39;95.64
21588;BME280;10956;48.878;13.316;2023-05-23T03:50:23;93832.84;;;15.53;94.57
21588;BME280;10956;48.878;13.316;2023-05-23T03:52:49;93820.09;;;15.64;94.24
21588;BME280;10956;48.878;13.316;2023-05-23T03:55:14;93830.63;;;15.77;93.27
21588;BME280;10956;48.878;13.316;2023-05-23T03:57:39;93828.31;;;15.85;92.27
21588;BME280;10956;48.878;13.316;2023-05-23T04:00:05;93826.13;;;15.87;92.94
21588;BME280;10956;48.878;13.316;2023-05-23T04:02:36;93823.50;;;15.95;92.46
21588;BME280;10956;48.878;13.316;2023-05-23T04:05:01;93825.88;;;16.05;93.09
21588;BME280;10956;48.878;13.316;2023-05-23T04:07:27;93823.25;;;16.14;90.67
21588;BME280;10956;48.878;13.316;2023-05-23T04:09:52;93823.59;;;16.21;90.43
21588;BME280;10956;48.878;13.316;2023-05-23T04:12:18;93822.97;;;16.24;89.04
21588;BME280;10956;48.878;13.316;2023-05-23T04:14:45;93823.28;;;16.31;87.80
21588;BME280;10956;48.878;13.316;2023-05-23T04:17:11;93819.72;;;16.36;89.07
21588;BME280;10956;48.878;13.316;2023-05-23T04:19:37;93810.97;;;16.44;88.67
21588;BME280;10956;48.878;13.316;2023-05-23T04:22:02;93822.09;;;16.55;89.38
21588;BME280;10956;48.878;13.316;2023-05-23T04:24:28;93817.69;;;16.59;91.35
21588;BME280;10956;48.878;13.316;2023-05-23T04:26:53;93810.03;;;16.57;92.62
21588;BME280;10956;48.878;13.316;2023-05-23T04:29:20;93814.88;;;16.55;92.57
21588;BME280;10956;48.878;13.316;2023-05-23T04:31:46;93816.91;;;16.58;92.40
21588;BME280;10956;48.878;13.316;2023-05-23T04:34:11;93819.63;;;16.67;91.99
21588;BME280;10956;48.878;13.316;2023-05-23T04:36:37;93821.34;;;16.80;91.26
21588;BME280;10956;48.878;13.316;2023-05-23T04:39:04;93819.94;;;16.91;91.64
21588;BME280;10956;48.878;13.316;2023-05-23T04:41:29;93818.69;;;16.97;91.89
21588;BME280;10956;48.878;13.316;2023-05-23T04:43:55;93818.97;;;17.04;91.11
21588;BME280;10956;48.878;13.316;2023-05-23T04:46:22;93825.41;;;17.03;91.47
21588;BME280;10956;48.878;13.316;2023-05-23T04:48:53;93830.72;;;17.03;92.05
21588;BME280;10956;48.878;13.316;2023-05-23T04:51:20;93818.03;;;17.00;93.15
21588;BME280;10956;48.878;13.316;2023-05-23T04:53:49;93826.66;;;16.97;92.08
21588;BME280;10956;48.878;13.316;2023-05-23T04:56:15;93832.78;;;16.98;91.52
21588;BME280;10956;48.878;13.316;2023-05-23T04:58:42;93838.88;;;16.98;91.83
21588;BME280;10956;48.878;13.316;2023-05-23T05:01:09;93823.69;;;16.99;92.21
21588;BME280;10956;48.878;13.316;2023-05-23T05:03:35;93817.41;;;17.03;92.22
21588;BME280;10956;48.878;13.316;2023-05-23T05:06:01;93825.72;;;17.10;91.60
21588;BME280;10956;48.878;13.316;2023-05-23T05:08:26;93830.72;;;17.21;92.00
21588;BME280;10956;48.878;13.316;2023-05-23T05:10:53;93830.38;;;17.31;90.90
21588;BME280;10956;48.878;13.316;2023-05-23T05:13:18;93828.16;;;17.41;90.79
21588;BME280;10956;48.878;13.316;2023-05-23T05:15:44;93835.69;;;17.48;89.98
21588;BME280;10956;48.878;13.316;2023-05-23T05:18:09;93840.66;;;17.58;88.91
21588;BME280;10956;48.878;13.316;2023-05-23T05:20:36;93842.06;;;17.64;89.22
21588;BME280;10956;48.878;13.316;2023-05-23T05:23:01;93836.59;;;17.69;90.11
21588;BME280;10956;48.878;13.316;2023-05-23T05:25:27;93839.56;;;17.77;89.44
21588;BME280;10956;48.878;13.316;2023-05-23T05:27:56;93842.34;;;17.80;89.80
21588;BME280;10956;48.878;13.316;2023-05-23T05:30:21;93839.38;;;17.82;90.26
21588;BME280;10956;48.878;13.316;2023-05-23T05:32:47;93846.09;;;17.88;89.37
21588;BME280;10956;48.878;13.316;2023-05-23T05:35:12;93842.63;;;17.96;89.07
21588;BME280;10956;48.878;13.316;2023-05-23T05:37:41;93849.16;;;18.07;88.73
21588;BME280;10956;48.878;13.316;2023-05-23T05:40:06;93856.34;;;18.15;88.73
21588;BME280;10956;48.878;13.316;2023-05-23T05:42:33;93840.75;;;18.26;86.91
21588;BME280;10956;48.878;13.316;2023-05-23T05:44:58;93855.59;;;18.35;87.29
21588;BME280;10956;48.878;13.316;2023-05-23T05:47:24;93853.31;;;18.55;86.50
21588;BME280;10956;48.878;13.316;2023-05-23T05:49:49;93843.47;;;18.76;85.09
21588;BME280;10956;48.878;13.316;2023-05-23T05:52:14;93851.41;;;19.06;83.61
21588;BME280;10956;48.878;13.316;2023-05-23T05:54:40;93852.28;;;19.30;82.82
21588;BME280;10956;48.878;13.316;2023-05-23T05:57:05;93844.72;;;19.53;81.98
21588;BME280;10956;48.878;13.316;2023-05-23T05:59:30;93843.88;;;19.74;80.52
21588;BME280;10956;48.878;13.316;2023-05-23T06:01:56;93842.47;;;20.00;79.05
21588;BME280;10956;48.878;13.316;2023-05-23T06:04:21;93856.44;;;20.30;77.77
21588;BME280;10956;48.878;13.316;2023-05-23T06:06:46;93849.44;;;20.50;77.29
21588;BME280;10956;48.878;13.316;2023-05-23T06:09:12;93853.09;;;20.58;76.93
21588;BME280;10956;48.878;13.316;2023-05-23T06:11:37;93854.88;;;20.54;76.44
21588;BME280;10956;48.878;13.316;2023-05-23T06:14:07;93856.78;;;20.41;75.90
21588;BME280;10956;48.878;13.316;2023-05-23T06:16:33;93854.19;;;20.32;76.42
21588;BME280;10956;48.878;13.316;2023-05-23T06:18:59;93859.88;;;20.19;76.88
21588;BME280;10956;48.878;13.316;2023-05-23T06:21:24;93858.41;;;19.97;77.27
21588;BME280;10956;48.878;13.316;2023-05-23T06:23:49;93864.38;;;19.70;78.30
21588;BME280;10956;48.878;13.316;2023-05-23T06:26:15;93868.94;;;19.48;78.66
21588;BME280;10956;48.878;13.316;2023-05-23T06:28:40;93871.56;;;19.36;78.95
21588;BME280;10956;48.878;13.316;2023-05-23T06:31:06;93867.78;;;19.37;78.29
21588;BME280;10956;48.878;13.316;2023-05-23T06:33:34;93868.94;;;19.48;78.16
21588;BME280;10956;48.878;13.316;2023-05-23T06:35:59;93867.50;;;19.72;77.53
21588;BME280;10956;48.878;13.316;2023-05-23T06:38:28;93863.31;;;19.95;76.16
21588;BME280;10956;48.878;13.316;2023-05-23T06:40:54;93868.47;;;20.24;74.29
21588;BME280;10956;48.878;13.316;2023-05-23T06:43:19;93862.03;;;20.50;72.93
21588;BME280;10956;48.878;13.316;2023-05-23T06:45:45;93860.47;;;20.61;70.79
21588;BME280;10956;48.878;13.316;2023-05-23T06:48:13;93856.66;;;20.62;69.98
21588;BME280;10956;48.878;13.316;2023-05-23T06:50:39;93862.69;;;20.71;70.29
21588;BME280;10956;48.878;13.316;2023-05-23T06:53:05;93861.09;;;20.82;70.47
21588;BME280;10956;48.878;13.316;2023-05-23T06:55:31;93868.31;;;20.94;70.77
21588;BME280;10956;48.878;13.316;2023-05-23T06:57:58;93863.78;;;20.82;72.82
21588;BME280;10956;48.878;13.316;2023-05-23T07:00:24;93862.22;;;20.81;72.99
21588;BME280;10956;48.878;13.316;2023-05-23T07:02:49;93857.31;;;20.83;72.39
21588;BME280;10956;48.878;13.316;2023-05-23T07:05:15;93861.56;;;20.72;72.84
21588;BME280;10956;48.878;13.316;2023-05-23T07:07:41;93866.13;;;20.72;73.45
21588;BME280;10956;48.878;13.316;2023-05-23T07:10:08;93862.22;;;20.81;72.38
21588;BME280;10956;48.878;13.316;2023-05-23T07:12:33;93865.31;;;20.95;71.41
21588;BME280;10956;48.878;13.316;2023-05-23T07:14:59;93867.19;;;21.07;71.88
21588;BME280;10956;48.878;13.316;2023-05-23T07:17:24;93860.69;;;21.08;72.26
21588;BME280;10956;48.878;13.316;2023-05-23T07:19:50;93867.06;;;21.04;73.35
21588;BME280;10956;48.878;13.316;2023-05-23T07:22:15;93867.84;;;21.04;72.47
21588;BME280;10956;48.878;13.316;2023-05-23T07:24:40;93865.75;;;20.98;72.63
21588;BME280;10956;48.878;13.316;2023-05-23T07:27:06;93882.59;;;20.98;73.79
21588;BME280;10956;48.878;13.316;2023-05-23T07:29:31;93874.34;;;21.03;73.59
21588;BME280;10956;48.878;13.316;2023-05-23T07:31:57;93873.31;;;21.08;74.00
21588;BME280;10956;48.878;13.316;2023-05-23T07:34:23;93878.53;;;21.16;72.55
21588;BME280;10956;48.878;13.316;2023-05-23T07:36:49;93869.28;;;21.26;72.31
21588;BME280;10956;48.878;13.316;2023-05-23T07:39:14;93869.88;;;21.47;72.20
21588;BME280;10956;48.878;13.316;2023-05-23T07:41:39;93869.81;;;21.59;72.26
21588;BME280;10956;48.878;13.316;2023-05-23T07:44:06;93872.59;;;21.63;72.79
21588;BME280;10956;48.878;13.316;2023-05-23T07:46:31;93863.19;;;21.41;73.30
21588;BME280;10956;48.878;13.316;2023-05-23T07:48:56;93863.91;;;21.26;73.04
21588;BME280;10956;48.878;13.316;2023-05-23T07:51:22;93867.94;;;21.20;73.61
21588;BME280;10956;48.878;13.316;2023-05-23T07:53:47;93866.16;;;21.24;74.13
21588;BME280;10956;48.878;13.316;2023-05-23T07:56:12;93877.53;;;21.21;74.75
21588;BME280;10956;48.878;13.316;2023-05-23T07:58:38;93875.53;;;21.18;73.64
21588;BME280;10956;48.878;13.316;2023-05-23T08:01:03;93879.75;;;21.19;74.91
21588;BME280;10956;48.878;13.316;2023-05-23T08:03:29;93872.88;;;21.06;76.56
21588;BME280;10956;48.878;13.316;2023-05-23T08:05:55;93873.56;;;21.03;74.72
21588;BME280;10956;48.878;13.316;2023-05-23T08:08:20;93869.63;;;21.12;73.44
21588;BME280;10956;48.878;13.316;2023-05-23T08:10:46;93866.59;;;21.14;73.80
21588;BME280;10956;48.878;13.316;2023-05-23T08:13:11;93875.56;;;21.06;74.61
21588;BME280;10956;48.878;13.316;2023-05-23T08:15:37;93870.63;;;21.08;75.92
21588;BME280;10956;48.878;13.316;2023-05-23T08:18:03;93868.63;;;21.05;75.99
21588;BME280;10956;48.878;13.316;2023-05-23T08:20:28;93864.72;;;21.14;75.74
21588;BME280;10956;48.878;13.316;2023-05-23T08:22:58;93862.34;;;21.25;73.96
21588;BME280;10956;48.878;13.316;2023-05-23T08:25:23;93861.88;;;21.35;72.79
21588;BME280;10956;48.878;13.316;2023-05-23T08:27:49;93866.22;;;21.40;72.15
21588;BME280;10956;48.878;13.316;2023-05-23T08:30:15;93869.22;;;21.38;72.52
21588;BME280;10956;48.878;13.316;2023-05-23T08:32:41;93870.34;;;21.37;68.94
21588;BME280;10956;48.878;13.316;2023-05-23T08:35:06;93868.56;;;21.41;69.25
21588;BME280;10956;48.878;13.316;2023-05-23T08:37:32;93883.22;;;21.59;67.14
21588;BME280;10956;48.878;13.316;2023-05-23T08:39:57;93878.78;;;21.95;69.22
21588;BME280;10956;48.878;13.316;2023-05-23T08:42:23;93882.38;;;22.62;68.18
21588;BME280;10956;48.878;13.316;2023-05-23T08:44:48;93885.50;;;23.15;65.54
21588;BME280;10956;48.878;13.316;2023-05-23T08:47:15;93887.28;;;23.27;63.68
21588;BME280;10956;48.878;13.316;2023-05-23T08:49:42;93886.22;;;23.31;63.17
21588;BME280;10956;48.878;13.316;2023-05-23T08:52:11;93876.28;;;23.16;62.46
21588;BME280;10956;48.878;13.316;2023-05-23T08:54:37;93873.38;;;23.05;63.42
21588;BME280;10956;48.878;13.316;2023-05-23T08:57:03;93877.94;;;22.85;63.32
21588;BME280;10956;48.878;13.316;2023-05-23T08:59:29;93883.25;;;22.66;66.92
21588;BME280;10956;48.878;13.316;2023-05-23T09:01:57;93882.63;;;22.73;68.62
21588;BME280;10956;48.878;13.316;2023-05-23T09:04:22;93886.44;;;22.87;68.96
21588;BME280;10956;48.878;13.316;2023-05-23T09:06:48;93881.69;;;23.16;69.08
21588;BME280;10956;48.878;13.316;2023-05-23T09:09:13;93891.03;;;23.22;66.76
21588;BME280;10956;48.878;13.316;2023-05-23T09:11:40;93881.34;;;23.37;66.97
21588;BME280;10956;48.878;13.316;2023-05-23T09:14:05;93875.91;;;23.72;65.46
21588;BME280;10956;48.878;13.316;2023-05-23T09:16:32;93885.63;;;23.99;64.11
21588;BME280;10956;48.878;13.316;2023-05-23T09:19:09;93873.13;;;24.30;63.56
21588;BME280;10956;48.878;13.316;2023-05-23T09:21:35;93874.59;;;24.27;63.74
21588;BME280;10956;48.878;13.316;2023-05-23T09:24:00;93882.59;;;24.01;62.54
21588;BME280;10956;48.878;13.316;2023-05-23T09:26:26;93883.59;;;23.35;64.61
21588;BME280;10956;48.878;13.316;2023-05-23T09:28:56;93881.75;;;22.84;66.18
21588;BME280;10956;48.878;13.316;2023-05-23T09:31:25;93887.06;;;22.49;66.63
21588;BME280;10956;48.878;13.316;2023-05-23T09:33:51;93881.09;;;22.24;65.15
21588;BME280;10956;48.878;13.316;2023-05-23T09:36:16;93884.47;;;22.21;66.20
21588;BME280;10956;48.878;13.316;2023-05-23T09:38:44;93882.03;;;22.16;67.95
21588;BME280;10956;48.878;13.316;2023-05-23T09:41:10;93874.94;;;22.08;68.31
21588;BME280;10956;48.878;13.316;2023-05-23T09:43:54;93885.09;;;21.87;70.46
21588;BME280;10956;48.878;13.316;2023-05-23T09:46:21;93885.66;;;21.65;71.88
21588;BME280;10956;48.878;13.316;2023-05-23T09:48:47;93882.63;;;21.38;73.41
21588;BME280;10956;48.878;13.316;2023-05-23T09:51:13;93876.09;;;21.23;74.24
21588;BME280;10956;48.878;13.316;2023-05-23T09:53:39;93878.47;;;21.01;75.25
21588;BME280;10956;48.878;13.316;2023-05-23T09:56:05;93881.63;;;20.90;75.72
21588;BME280;10956;48.878;13.316;2023-05-23T09:58:35;93879.16;;;20.98;76.26
21588;BME280;10956;48.878;13.316;2023-05-23T10:01:06;93878.00;;;21.23;74.99
21588;BME280;10956;48.878;13.316;2023-05-23T10:03:39;93874.59;;;21.38;74.73
21588;BME280;10956;48.878;13.316;2023-05-23T10:06:11;93869.22;;;21.38;75.25
21588;BME280;10956;48.878;13.316;2023-05-23T10:08:43;93874.19;;;21.12;78.67
21588;BME280;10956;48.878;13.316;2023-05-23T10:13:48;93879.09;;;20.45;83.42
21588;BME280;10956;48.878;13.316;2023-05-23T10:18:59;93887.69;;;19.81;89.24
21588;BME280;10956;48.878;13.316;2023-05-23T10:21:39;93868.22;;;19.60;93.37
21588;BME280;10956;48.878;13.316;2023-05-23T10:24:06;93876.59;;;19.58;96.25
21588;BME280;10956;48.878;13.316;2023-05-23T10:26:32;93877.28;;;19.67;97.65
21588;BME280;10956;48.878;13.316;2023-05-23T10:28:57;93865.06;;;19.79;98.20
21588;BME280;10956;48.878;13.316;2023-05-23T10:31:26;93868.88;;;19.90;99.33
21588;BME280;10956;48.878;13.316;2023-05-23T10:34:01;93869.78;;;20.18;100.00
21588;BME280;10956;48.878;13.316;2023-05-23T10:36:36;93867.47;;;20.66;96.20
21588;BME280;10956;48.878;13.316;2023-05-23T10:45:13;93898.31;;;21.12;95.70
21588;BME280;10956;48.878;13.316;2023-05-23T10:47:38;93905.75;;;20.66;90.75
